Time,TemperatureF,DewpointF,PressureIn,WindDirection,WindDirectionDegrees,WindSpeedMPH,WindSpeedGustMPH,Humidity,HourlyPrecipIn,Conditions,Clouds,dailyrainin,SoftwareType,DateUTC
2013-07-24 00:02:00,69.4,68.8,29.87,SSE,162,0.0,0.0,98,0.00,,,0.00,Wunderground v.1.15,2013-07-24 04:02:00,
2013-07-24 00:06:00,69.4,68.8,29.87,SSE,167,0.0,0.0,98,0.00,,,0.00,Wunderground v.1.15,2013-07-24 04:06:00,
2013-07-24 00:08:00,69.3,68.7,29.87,SSE,167,0.0,0.0,98,0.00,,,0.00,Wunderground v.1.15,2013-07-24 04:08:00,
2013-07-24 00:12:00,69.3,68.7,29.87,SSE,167,0.0,0.0,98,0.00,,,0.00,Wunderground v.1.15,2013-07-24 04:12:00,
2013-07-24 00:18:00,69.7,69.1,29.86,ESE,121,0.0,1.0,98,0.00,,,0.00,Wunderground v.1.15,2013-07-24 04:18:00,
2013-07-24 00:24:00,70.1,69.5,29.86,East,88,1.0,1.0,98,0.00,,,0.00,Wunderground v.1.15,2013-07-24 04:24:00,
2013-07-24 00:26:00,70.3,69.7,29.86,East,101,1.0,1.0,98,0.00,,,0.00,Wunderground v.1.15,2013-07-24 04:26:00,
2013-07-24 00:32:00,70.4,69.8,29.86,SE,125,1.0,1.0,98,0.00,,,0.00,Wunderground v.1.15,2013-07-24 04:32:00,
2013-07-24 00:38:00,70.5,69.9,29.86,SSW,195,1.0,1.0,98,0.00,,,0.00,Wunderground v.1.15,2013-07-24 04:38:00,
2013-07-24 00:44:00,70.4,69.8,29.86,SSE,167,1.0,2.0,98,0.00,,,0.00,Wunderground v.1.15,2013-07-24 04:44:00,
2013-07-24 00:50:00,70.3,69.7,29.86,South,182,1.0,2.0,98,0.00,,,0.00,Wunderground v.1.15,2013-07-24 04:50:00,
2013-07-24 00:56:00,70.3,69.7,29.86,South,183,0.0,1.0,98,0.00,,,0.00,Wunderground v.1.15,2013-07-24 04:56:00,
2013-07-24 01:02:00,70.3,69.7,29.86,South,183,0.0,2.0,98,0.00,,,0.00,Wunderground v.1.15,2013-07-24 05:02:00,
2013-07-24 01:08:00,70.6,70.0,29.85,East,82,0.0,2.0,98,0.00,,,0.00,Wunderground v.1.15,2013-07-24 05:08:00,
2013-07-24 01:14:00,70.7,70.1,29.85,ENE,77,1.0,2.0,98,0.00,,,0.00,Wunderground v.1.15,2013-07-24 05:14:00,
2013-07-24 01:20:00,70.9,70.3,29.85,East,87,0.0,2.0,98,0.00,,,0.00,Wunderground v.1.15,2013-07-24 05:20:00,
2013-07-24 01:26:00,71.0,70.4,29.85,East,97,0.0,2.0,98,0.00,,,0.00,Wunderground v.1.15,2013-07-24 05:26:00,
2013-07-24 01:32:00,71.0,70.4,29.85,SE,139,1.0,2.0,98,0.00,,,0.00,Wunderground v.1.15,2013-07-24 05:32:00,
2013-07-24 01:38:00,71.0,70.4,29.85,SE,134,1.0,2.0,98,0.00,,,0.00,Wunderground v.1.15,2013-07-24 05:38:00,
2013-07-24 01:44:00,71.1,70.5,29.85,SE,132,1.0,2.0,98,0.00,,,0.00,Wunderground v.1.15,2013-07-24 05:44:00,
2013-07-24 01:50:00,71.2,70.6,29.85,SE,139,1.0,2.0,98,0.00,,,0.00,Wunderground v.1.15,2013-07-24 05:50:00,
2013-07-24 01:56:00,71.3,70.7,29.85,SE,136,1.0,2.0,98,0.00,,,0.00,Wunderground v.1.15,2013-07-24 05:56:00,
2013-07-24 02:02:00,71.2,70.6,29.85,SE,142,0.0,2.0,98,0.00,,,0.00,Wunderground v.1.15,2013-07-24 06:02:00,
2013-07-24 02:08:00,71.3,70.7,29.85,SSE,150,1.0,2.0,98,0.00,,,0.00,Wunderground v.1.15,2013-07-24 06:08:00,
2013-07-24 02:14:00,71.4,70.8,29.84,South,186,1.0,2.0,98,0.00,,,0.00,Wunderground v.1.15,2013-07-24 06:14:00,
2013-07-24 02:20:00,71.6,71.0,29.84,South,190,1.0,3.0,98,0.00,,,0.00,Wunderground v.1.15,2013-07-24 06:20:00,
2013-07-24 02:26:00,71.7,71.1,29.84,SSW,195,2.0,3.0,98,0.00,,,0.00,Wunderground v.1.15,2013-07-24 06:26:00,
2013-07-24 02:32:00,71.7,71.1,29.83,South,183,3.0,4.0,98,0.00,,,0.00,Wunderground v.1.15,2013-07-24 06:32:00,
2013-07-24 02:38:00,71.8,71.2,29.83,SSE,167,3.0,4.0,98,0.00,,,0.00,Wunderground v.1.15,2013-07-24 06:38:00,
2013-07-24 02:44:00,71.8,70.9,29.83,SSE,163,3.0,3.0,97,0.00,,,0.00,Wunderground v.1.15,2013-07-24 06:44:00,
2013-07-24 02:50:00,71.8,70.9,29.82,South,177,2.0,3.0,97,0.00,,,0.00,Wunderground v.1.15,2013-07-24 06:50:00,
2013-07-24 02:56:00,71.8,70.9,29.83,South,188,3.0,4.0,97,0.00,,,0.00,Wunderground v.1.15,2013-07-24 06:56:00,
2013-07-24 03:02:00,71.8,70.9,29.83,South,190,3.0,4.0,97,0.00,,,0.00,Wunderground v.1.15,2013-07-24 07:02:00,
2013-07-24 03:08:00,71.8,70.9,29.83,South,182,4.0,4.0,97,0.00,,,0.00,Wunderground v.1.15,2013-07-24 07:08:00,
2013-07-24 03:14:00,71.8,70.9,29.82,South,183,3.0,4.0,97,0.00,,,0.00,Wunderground v.1.15,2013-07-24 07:14:00,
2013-07-24 03:20:00,71.8,70.9,29.82,SE,143,3.0,3.0,97,0.00,,,0.00,Wunderground v.1.15,2013-07-24 07:20:00,
2013-07-24 03:26:00,71.8,70.9,29.82,SE,146,2.0,3.0,97,0.00,,,0.00,Wunderground v.1.15,2013-07-24 07:26:00,
2013-07-24 03:32:00,71.8,70.9,29.81,South,174,2.0,3.0,97,0.00,,,0.00,Wunderground v.1.15,2013-07-24 07:32:00,
2013-07-24 03:38:00,71.8,70.9,29.82,South,190,3.0,3.0,97,0.00,,,0.00,Wunderground v.1.15,2013-07-24 07:38:00,
2013-07-24 03:44:00,71.8,70.9,29.82,SSE,153,2.0,3.0,97,0.00,,,0.00,Wunderground v.1.15,2013-07-24 07:44:00,
2013-07-24 03:50:00,71.9,71.0,29.81,SSE,157,2.0,3.0,97,0.00,,,0.00,Wunderground v.1.15,2013-07-24 07:50:00,
2013-07-24 03:56:00,72.0,71.1,29.81,SSE,167,3.0,3.0,97,0.00,,,0.00,Wunderground v.1.15,2013-07-24 07:56:00,
2013-07-24 04:02:00,72.0,71.1,29.81,South,172,2.0,3.0,97,0.00,,,0.00,Wunderground v.1.15,2013-07-24 08:02:00,
2013-07-24 04:08:00,72.1,71.2,29.80,SE,136,2.0,4.0,97,0.00,,,0.00,Wunderground v.1.15,2013-07-24 08:08:00,
2013-07-24 04:14:00,72.1,71.2,29.80,SE,143,2.0,3.0,97,0.00,,,0.00,Wunderground v.1.15,2013-07-24 08:14:00,
2013-07-24 04:20:00,72.0,71.1,29.80,SSE,167,2.0,4.0,97,0.00,,,0.00,Wunderground v.1.15,2013-07-24 08:20:00,
2013-07-24 04:26:00,72.0,71.1,29.81,South,183,3.0,4.0,97,0.00,,,0.00,Wunderground v.1.15,2013-07-24 08:26:00,
2013-07-24 04:32:00,72.0,71.1,29.81,SSE,151,3.0,5.0,97,0.00,,,0.00,Wunderground v.1.15,2013-07-24 08:32:00,
2013-07-24 04:38:00,72.0,71.1,29.81,South,176,2.0,5.0,97,0.00,,,0.00,Wunderground v.1.15,2013-07-24 08:38:00,
2013-07-24 04:44:00,72.0,71.1,29.82,SSE,158,2.0,3.0,97,0.00,,,0.00,Wunderground v.1.15,2013-07-24 08:44:00,
2013-07-24 04:50:00,72.1,71.2,29.82,SSW,201,2.0,2.0,97,0.00,,,0.00,Wunderground v.1.15,2013-07-24 08:50:00,
2013-07-24 04:56:00,72.2,71.3,29.82,SW,217,2.0,6.0,97,0.00,,,0.00,Wunderground v.1.15,2013-07-24 08:56:00,
2013-07-24 05:02:00,72.2,71.3,29.82,South,177,3.0,4.0,97,0.00,,,0.00,Wunderground v.1.15,2013-07-24 09:02:00,
2013-07-24 05:08:00,72.1,71.2,29.82,South,169,3.0,4.0,97,0.00,,,0.00,Wunderground v.1.15,2013-07-24 09:08:00,
2013-07-24 05:14:00,72.1,71.2,29.82,SSE,159,3.0,4.0,97,0.00,,,0.00,Wunderground v.1.15,2013-07-24 09:14:00,
2013-07-24 05:20:00,72.1,71.2,29.83,South,186,3.0,3.0,97,0.00,,,0.00,Wunderground v.1.15,2013-07-24 09:20:00,
2013-07-24 05:26:00,72.0,71.1,29.83,South,171,3.0,5.0,97,0.00,,,0.00,Wunderground v.1.15,2013-07-24 09:26:00,
2013-07-24 05:32:00,72.0,71.1,29.83,South,177,3.0,4.0,97,0.00,,,0.00,Wunderground v.1.15,2013-07-24 09:32:00,
2013-07-24 05:38:00,72.0,71.1,29.83,South,171,3.0,4.0,97,0.00,,,0.00,Wunderground v.1.15,2013-07-24 09:38:00,
2013-07-24 05:44:00,72.0,71.1,29.83,SSE,155,3.0,3.0,97,0.00,,,0.00,Wunderground v.1.15,2013-07-24 09:44:00,
2013-07-24 05:50:00,72.0,71.1,29.83,South,170,2.0,2.0,97,0.00,,,0.00,Wunderground v.1.15,2013-07-24 09:50:00,
2013-07-24 05:58:00,72.0,71.1,29.83,South,184,2.0,3.0,97,0.00,,,0.00,Wunderground v.1.15,2013-07-24 09:58:00,
2013-07-24 06:04:00,72.0,71.1,29.83,SSE,162,2.0,3.0,97,0.00,,,0.00,Wunderground v.1.15,2013-07-24 10:04:00,
2013-07-24 06:10:00,72.0,71.1,29.83,SSW,195,3.0,3.0,97,0.00,,,0.00,Wunderground v.1.15,2013-07-24 10:10:00,
2013-07-24 06:16:00,72.0,71.1,29.83,South,179,3.0,3.0,97,0.00,,,0.00,Wunderground v.1.15,2013-07-24 10:16:00,
2013-07-24 06:22:00,72.0,71.1,29.83,South,176,3.0,3.0,97,0.00,,,0.00,Wunderground v.1.15,2013-07-24 10:22:00,
2013-07-24 06:28:00,72.0,71.1,29.84,South,191,3.0,4.0,97,0.00,,,0.00,Wunderground v.1.15,2013-07-24 10:28:00,
2013-07-24 06:34:00,72.0,71.1,29.84,SSE,156,2.0,4.0,97,0.00,,,0.00,Wunderground v.1.15,2013-07-24 10:34:00,
2013-07-24 06:40:00,72.0,71.1,29.84,South,180,2.0,2.0,97,0.00,,,0.00,Wunderground v.1.15,2013-07-24 10:40:00,
2013-07-24 06:46:00,72.0,71.1,29.84,South,187,1.0,2.0,97,0.00,,,0.00,Wunderground v.1.15,2013-07-24 10:46:00,
2013-07-24 06:52:00,72.0,71.1,29.85,SSE,167,1.0,2.0,97,0.00,,,0.00,Wunderground v.1.15,2013-07-24 10:52:00,
2013-07-24 06:58:00,72.0,71.1,29.85,South,186,1.0,3.0,97,0.00,,,0.00,Wunderground v.1.15,2013-07-24 10:58:00,
2013-07-24 07:04:00,72.0,71.1,29.85,SSE,166,3.0,3.0,97,0.00,,,0.00,Wunderground v.1.15,2013-07-24 11:04:00,
2013-07-24 07:10:00,72.0,71.1,29.85,SSE,167,3.0,3.0,97,0.00,,,0.00,Wunderground v.1.15,2013-07-24 11:10:00,
2013-07-24 07:16:00,72.0,71.1,29.86,SSW,195,1.0,3.0,97,0.00,,,0.00,Wunderground v.1.15,2013-07-24 11:16:00,
2013-07-24 07:22:00,72.0,71.1,29.85,SSE,160,1.0,3.0,97,0.00,,,0.00,Wunderground v.1.15,2013-07-24 11:22:00,
2013-07-24 07:28:00,72.0,71.1,29.85,South,170,2.0,4.0,97,0.00,,,0.00,Wunderground v.1.15,2013-07-24 11:28:00,
2013-07-24 07:34:00,72.0,71.1,29.86,South,170,2.0,3.0,97,0.00,,,0.00,Wunderground v.1.15,2013-07-24 11:34:00,
2013-07-24 07:40:00,72.0,71.1,29.85,SSE,161,1.0,2.0,97,0.00,,,0.00,Wunderground v.1.15,2013-07-24 11:40:00,
2013-07-24 07:46:00,72.1,71.2,29.86,South,188,2.0,3.0,97,0.00,,,0.00,Wunderground v.1.15,2013-07-24 11:46:00,
2013-07-24 07:52:00,72.2,71.3,29.86,South,190,2.0,3.0,97,0.00,,,0.00,Wunderground v.1.15,2013-07-24 11:52:00,
2013-07-24 07:58:00,72.4,71.2,29.86,SSW,199,3.0,5.0,96,0.00,,,0.00,Wunderground v.1.15,2013-07-24 11:58:00,
2013-07-24 08:04:00,72.5,71.3,29.86,South,181,4.0,5.0,96,0.00,,,0.00,Wunderground v.1.15,2013-07-24 12:04:00,
2013-07-24 08:10:00,72.5,71.3,29.86,South,187,4.0,5.0,96,0.00,,,0.00,Wunderground v.1.15,2013-07-24 12:10:00,
2013-07-24 08:16:00,72.5,71.3,29.86,SSW,194,4.0,6.0,96,0.00,,,0.00,Wunderground v.1.15,2013-07-24 12:16:00,
2013-07-24 08:22:00,72.8,71.6,29.86,South,174,3.0,4.0,96,0.00,,,0.00,Wunderground v.1.15,2013-07-24 12:22:00,
2013-07-24 08:28:00,73.0,71.5,29.86,South,190,3.0,4.0,95,0.00,,,0.00,Wunderground v.1.15,2013-07-24 12:28:00,
2013-07-24 08:34:00,73.0,71.5,29.86,South,189,3.0,4.0,95,0.00,,,0.00,Wunderground v.1.15,2013-07-24 12:34:00,
2013-07-24 08:40:00,73.1,71.6,29.86,SSW,204,4.0,6.0,95,0.00,,,0.00,Wunderground v.1.15,2013-07-24 12:40:00,
2013-07-24 08:46:00,73.2,71.7,29.86,SSW,195,4.0,6.0,95,0.00,,,0.00,Wunderground v.1.15,2013-07-24 12:46:00,
2013-07-24 08:52:00,73.6,72.1,29.86,South,181,3.0,5.0,95,0.00,,,0.00,Wunderground v.1.15,2013-07-24 12:52:00,
2013-07-24 08:58:00,73.9,72.1,29.86,South,186,3.0,5.0,94,0.00,,,0.00,Wunderground v.1.15,2013-07-24 12:58:00,
2013-07-24 09:04:00,74.1,72.3,29.86,SSW,194,2.0,3.0,94,0.00,,,0.00,Wunderground v.1.15,2013-07-24 13:04:00,
2013-07-24 09:10:00,74.0,72.2,29.86,SSE,150,2.0,2.0,94,0.00,,,0.00,Wunderground v.1.15,2013-07-24 13:10:00,
2013-07-24 09:16:00,73.8,71.6,29.87,South,188,3.0,3.0,93,0.00,,,0.00,Wunderground v.1.15,2013-07-24 13:16:00,
2013-07-24 09:22:00,73.7,71.9,29.87,South,173,3.0,3.0,94,0.00,,,0.00,Wunderground v.1.15,2013-07-24 13:22:00,
2013-07-24 09:28:00,73.7,71.5,29.87,South,183,3.0,3.0,93,0.00,,,0.00,Wunderground v.1.15,2013-07-24 13:28:00,
2013-07-24 09:34:00,74.1,71.9,29.87,SSW,211,3.0,4.0,93,0.00,,,0.00,Wunderground v.1.15,2013-07-24 13:34:00,
2013-07-24 09:40:00,74.2,71.7,29.87,South,181,3.0,3.0,92,0.00,,,0.00,Wunderground v.1.15,2013-07-24 13:40:00,
2013-07-24 09:48:00,74.4,71.9,29.87,SE,131,3.0,4.0,92,0.00,,,0.00,Wunderground v.1.15,2013-07-24 13:48:00,
2013-07-24 09:54:00,74.9,72.4,29.87,SSE,159,2.0,3.0,92,0.00,,,0.00,Wunderground v.1.15,2013-07-24 13:54:00,
2013-07-24 10:00:00,75.6,72.5,29.87,SSE,159,2.0,2.0,90,0.00,,,0.00,Wunderground v.1.15,2013-07-24 14:00:00,
2013-07-24 10:08:00,76.0,72.9,29.87,ENE,63,3.0,4.0,90,0.00,,,0.00,Wunderground v.1.15,2013-07-24 14:08:00,
2013-07-24 10:14:00,75.9,72.4,29.88,SE,135,2.0,3.0,89,0.00,,,0.00,Wunderground v.1.15,2013-07-24 14:14:00,
2013-07-24 10:20:00,75.9,72.4,29.88,South,177,2.0,3.0,89,0.00,,,0.00,Wunderground v.1.15,2013-07-24 14:20:00,
2013-07-24 10:26:00,75.8,72.3,29.88,SSE,167,3.0,4.0,89,0.00,,,0.00,Wunderground v.1.15,2013-07-24 14:26:00,
2013-07-24 10:32:00,76.1,72.6,29.88,SE,134,3.0,6.0,89,0.00,,,0.00,Wunderground v.1.15,2013-07-24 14:32:00,
2013-07-24 10:38:00,76.3,73.1,29.87,ENE,78,3.0,6.0,90,0.00,,,0.00,Wunderground v.1.15,2013-07-24 14:38:00,
2013-07-24 10:44:00,76.6,73.1,29.87,SSE,150,3.0,3.0,89,0.00,,,0.00,Wunderground v.1.15,2013-07-24 14:44:00,
2013-07-24 10:50:00,76.8,73.0,29.87,SE,128,2.0,5.0,88,0.00,,,0.00,Wunderground v.1.15,2013-07-24 14:50:00,
2013-07-24 10:56:00,76.8,73.0,29.87,South,186,3.0,5.0,88,0.00,,,0.00,Wunderground v.1.15,2013-07-24 14:56:00,
2013-07-24 11:02:00,77.0,73.2,29.87,SSE,162,2.0,3.0,88,0.00,,,0.00,Wunderground v.1.15,2013-07-24 15:02:00,
2013-07-24 11:08:00,77.2,73.0,29.86,SE,146,4.0,6.0,87,0.00,,,0.00,Wunderground v.1.15,2013-07-24 15:08:00,
2013-07-24 11:14:00,77.7,73.9,29.86,SE,142,4.0,4.0,88,0.00,,,0.00,Wunderground v.1.15,2013-07-24 15:14:00,
2013-07-24 11:20:00,78.0,73.5,29.87,South,188,4.0,5.0,86,0.00,,,0.00,Wunderground v.1.15,2013-07-24 15:20:00,
2013-07-24 11:26:00,78.0,73.1,29.86,SSW,208,3.0,5.0,85,0.00,,,0.00,Wunderground v.1.15,2013-07-24 15:26:00,
2013-07-24 11:32:00,78.2,73.7,29.86,SSE,162,2.0,3.0,86,0.00,,,0.00,Wunderground v.1.15,2013-07-24 15:32:00,
2013-07-24 11:38:00,78.3,73.1,29.86,SE,145,2.0,3.0,84,0.00,,,0.00,Wunderground v.1.15,2013-07-24 15:38:00,
2013-07-24 11:44:00,78.2,73.3,29.86,SE,127,3.0,7.0,85,0.00,,,0.00,Wunderground v.1.15,2013-07-24 15:44:00,
2013-07-24 11:50:00,78.2,73.3,29.86,SSW,193,4.0,4.0,85,0.00,,,0.00,Wunderground v.1.15,2013-07-24 15:50:00,
2013-07-24 11:56:00,78.3,73.4,29.86,SE,143,3.0,4.0,85,0.00,,,0.00,Wunderground v.1.15,2013-07-24 15:56:00,
2013-07-24 12:02:00,78.5,73.3,29.86,SE,136,4.0,8.0,84,0.00,,,0.00,Wunderground v.1.15,2013-07-24 16:02:00,
2013-07-24 12:10:00,78.6,73.0,29.86,SE,131,6.0,6.0,83,0.00,,,0.00,Wunderground v.1.15,2013-07-24 16:10:00,
2013-07-24 12:16:00,78.7,73.1,29.86,South,183,5.0,6.0,83,0.00,,,0.00,Wunderground v.1.15,2013-07-24 16:16:00,
2013-07-24 12:22:00,78.8,72.8,29.86,SSE,157,5.0,6.0,82,0.00,,,0.00,Wunderground v.1.15,2013-07-24 16:22:00,
2013-07-24 12:28:00,79.5,73.5,29.86,SSE,159,5.0,6.0,82,0.00,,,0.00,Wunderground v.1.15,2013-07-24 16:28:00,
2013-07-24 12:34:00,79.8,74.2,29.86,SSE,160,4.0,5.0,83,0.00,,,0.00,Wunderground v.1.15,2013-07-24 16:34:00,
2013-07-24 12:40:00,80.1,73.4,29.86,SE,127,3.0,4.0,80,0.00,,,0.00,Wunderground v.1.15,2013-07-24 16:40:00,
2013-07-24 12:46:00,80.2,73.5,29.86,SE,129,5.0,7.0,80,0.00,,,0.00,Wunderground v.1.15,2013-07-24 16:46:00,
2013-07-24 12:52:00,80.3,73.9,29.86,ESE,109,5.0,9.0,81,0.00,,,0.00,Wunderground v.1.15,2013-07-24 16:52:00,
2013-07-24 12:58:00,80.4,73.7,29.86,ENE,77,5.0,9.0,80,0.00,,,0.00,Wunderground v.1.15,2013-07-24 16:58:00,
2013-07-24 13:04:00,80.2,73.5,29.86,South,180,6.0,7.0,80,0.00,,,0.00,Wunderground v.1.15,2013-07-24 17:04:00,
2013-07-24 13:10:00,80.3,73.6,29.86,SE,146,5.0,6.0,80,0.00,,,0.00,Wunderground v.1.15,2013-07-24 17:10:00,
2013-07-24 13:16:00,80.5,73.4,29.86,South,186,4.0,6.0,79,0.00,,,0.00,Wunderground v.1.15,2013-07-24 17:16:00,
2013-07-24 13:22:00,80.6,73.5,29.86,South,177,4.0,10.0,79,0.00,,,0.00,Wunderground v.1.15,2013-07-24 17:22:00,
2013-07-24 13:28:00,80.6,73.5,29.86,South,183,6.0,10.0,79,0.00,,,0.00,Wunderground v.1.15,2013-07-24 17:28:00,
2013-07-24 13:34:00,80.6,73.1,29.85,South,187,5.0,7.0,78,0.00,,,0.00,Wunderground v.1.15,2013-07-24 17:34:00,
2013-07-24 13:40:00,80.8,72.5,29.85,South,183,5.0,5.0,76,0.00,,,0.00,Wunderground v.1.15,2013-07-24 17:40:00,
2013-07-24 13:46:00,80.9,73.8,29.85,SSW,208,6.0,6.0,79,0.00,,,0.00,Wunderground v.1.15,2013-07-24 17:46:00,
2013-07-24 13:52:00,81.3,73.0,29.85,South,187,5.0,5.0,76,0.00,,,0.00,Wunderground v.1.15,2013-07-24 17:52:00,
2013-07-24 13:58:00,81.3,73.0,29.85,SSE,167,5.0,5.0,76,0.00,,,0.00,Wunderground v.1.15,2013-07-24 17:58:00,
2013-07-24 14:04:00,81.5,73.6,29.85,SSW,198,5.0,6.0,77,0.00,,,0.00,Wunderground v.1.15,2013-07-24 18:04:00,
2013-07-24 14:10:00,82.2,73.9,29.85,SE,130,4.0,4.0,76,0.00,,,0.00,Wunderground v.1.15,2013-07-24 18:10:00,
2013-07-24 14:16:00,82.9,73.8,29.85,SSE,153,3.0,4.0,74,0.00,,,0.00,Wunderground v.1.15,2013-07-24 18:16:00,
2013-07-24 14:22:00,83.5,73.5,29.84,SSW,205,3.0,6.0,72,0.00,,,0.00,Wunderground v.1.15,2013-07-24 18:22:00,
2013-07-24 14:28:00,83.5,72.3,29.84,South,187,3.0,7.0,69,0.00,,,0.00,Wunderground v.1.15,2013-07-24 18:28:00,
2013-07-24 14:34:00,82.8,72.0,29.84,SW,217,3.0,4.0,70,0.00,,,0.00,Wunderground v.1.15,2013-07-24 18:34:00,
2013-07-24 14:40:00,82.6,72.7,29.84,South,181,3.0,4.0,72,0.00,,,0.00,Wunderground v.1.15,2013-07-24 18:40:00,
2013-07-24 14:46:00,82.5,71.7,29.84,South,191,4.0,5.0,70,0.00,,,0.00,Wunderground v.1.15,2013-07-24 18:46:00,
2013-07-24 14:52:00,82.9,72.5,29.84,South,190,5.0,5.0,71,0.00,,,0.00,Wunderground v.1.15,2013-07-24 18:52:00,
2013-07-24 14:58:00,82.8,73.3,29.83,South,188,6.0,7.0,73,0.00,,,0.00,Wunderground v.1.15,2013-07-24 18:58:00,
2013-07-24 15:04:00,82.6,72.7,29.83,SSE,162,6.0,8.0,72,0.00,,,0.00,Wunderground v.1.15,2013-07-24 19:04:00,
2013-07-24 15:10:00,82.9,72.5,29.83,SSW,210,5.0,7.0,71,0.00,,,0.00,Wunderground v.1.15,2013-07-24 19:10:00,
2013-07-24 15:16:00,83.0,72.6,29.83,SSW,207,5.0,7.0,71,0.00,,,0.00,Wunderground v.1.15,2013-07-24 19:16:00,
2013-07-24 15:22:00,83.2,72.4,29.83,South,173,5.0,9.0,70,0.00,,,0.00,Wunderground v.1.15,2013-07-24 19:22:00,
2013-07-24 15:28:00,83.2,72.4,29.83,SW,232,6.0,9.0,70,0.00,,,0.00,Wunderground v.1.15,2013-07-24 19:28:00,
2013-07-24 15:34:00,83.5,71.4,29.83,WNW,295,5.0,5.0,67,0.00,,,0.00,Wunderground v.1.15,2013-07-24 19:34:00,
2013-07-24 15:40:00,83.7,70.2,29.83,SSW,208,5.0,5.0,64,0.00,,,0.00,Wunderground v.1.15,2013-07-24 19:40:00,
2013-07-24 15:46:00,83.7,69.8,29.83,West,264,5.0,6.0,63,0.00,,,0.00,Wunderground v.1.15,2013-07-24 19:46:00,
2013-07-24 15:52:00,83.9,70.4,29.83,SSW,210,4.0,4.0,64,0.00,,,0.00,Wunderground v.1.15,2013-07-24 19:52:00,
2013-07-24 15:58:00,84.3,70.3,29.83,SSW,207,4.0,6.0,63,0.00,,,0.00,Wunderground v.1.15,2013-07-24 19:58:00,
2013-07-24 16:04:00,84.4,71.3,29.83,West,262,4.0,4.0,65,0.00,,,0.00,Wunderground v.1.15,2013-07-24 20:04:00,
2013-07-24 16:10:00,84.2,70.7,29.83,NW,326,4.0,4.0,64,0.00,,,0.00,Wunderground v.1.15,2013-07-24 20:10:00,
2013-07-24 16:16:00,83.7,70.7,29.83,West,281,5.0,7.0,65,0.00,,,0.00,Wunderground v.1.15,2013-07-24 20:16:00,
2013-07-24 16:22:00,83.7,70.7,29.83,WNW,294,5.0,5.0,65,0.00,,,0.00,Wunderground v.1.15,2013-07-24 20:22:00,
2013-07-24 16:28:00,83.9,70.4,29.83,NW,315,4.0,10.0,64,0.00,,,0.00,Wunderground v.1.15,2013-07-24 20:28:00,
2013-07-24 16:34:00,83.6,69.7,29.82,SW,229,6.0,10.0,63,0.00,,,0.00,Wunderground v.1.15,2013-07-24 20:34:00,
2013-07-24 16:40:00,83.7,70.2,29.82,SW,229,6.0,6.0,64,0.00,,,0.00,Wunderground v.1.15,2013-07-24 20:40:00,
2013-07-24 16:46:00,83.9,69.0,29.82,SW,232,5.0,9.0,61,0.00,,,0.00,Wunderground v.1.15,2013-07-24 20:46:00,
2013-07-24 16:52:00,84.5,70.5,29.82,WSW,250,4.0,7.0,63,0.00,,,0.00,Wunderground v.1.15,2013-07-24 20:52:00,
2013-07-24 16:58:00,84.5,67.6,29.82,SW,224,5.0,7.0,57,0.00,,,0.00,Wunderground v.1.15,2013-07-24 20:58:00,
2013-07-24 17:04:00,84.5,67.6,29.82,NNE,20,5.0,6.0,57,0.00,,,0.00,Wunderground v.1.15,2013-07-24 21:04:00,
2013-07-24 17:10:00,84.4,67.5,29.82,WSW,250,5.0,5.0,57,0.00,,,0.00,Wunderground v.1.15,2013-07-24 21:10:00,
2013-07-24 17:18:00,84.3,67.9,29.82,NNE,16,6.0,9.0,58,0.00,,,0.00,Wunderground v.1.15,2013-07-24 21:18:00,
2013-07-24 17:24:00,84.5,67.6,29.82,SSW,193,5.0,6.0,57,0.00,,,0.00,Wunderground v.1.15,2013-07-24 21:24:00,
2013-07-24 17:30:00,84.3,66.9,29.82,SW,220,5.0,8.0,56,0.00,,,0.00,Wunderground v.1.15,2013-07-24 21:30:00,
2013-07-24 17:36:00,84.3,67.9,29.82,North,356,6.0,8.0,58,0.00,,,0.00,Wunderground v.1.15,2013-07-24 21:36:00,
2013-07-24 17:42:00,85.1,70.1,29.82,WSW,248,3.0,7.0,61,0.00,,,0.00,Wunderground v.1.15,2013-07-24 21:42:00,
2013-07-24 17:48:00,84.1,70.6,29.82,West,264,4.0,7.0,64,0.00,,,0.00,Wunderground v.1.15,2013-07-24 21:48:00,
2013-07-24 17:54:00,83.4,69.9,29.82,WNW,295,5.0,5.0,64,0.00,,,0.00,Wunderground v.1.15,2013-07-24 21:54:00,
2013-07-24 18:00:00,82.9,69.9,29.82,WNW,298,5.0,5.0,65,0.00,,,0.00,Wunderground v.1.15,2013-07-24 22:00:00,
2013-07-24 18:08:00,82.7,70.2,29.82,NW,309,6.0,9.0,66,0.00,,,0.00,Wunderground v.1.15,2013-07-24 22:08:00,
2013-07-24 18:14:00,82.3,69.4,29.82,NW,314,7.0,9.0,65,0.00,,,0.00,Wunderground v.1.15,2013-07-24 22:14:00,
2013-07-24 18:20:00,82.0,69.5,29.82,NW,312,8.0,8.0,66,0.00,,,0.00,Wunderground v.1.15,2013-07-24 22:20:00,
2013-07-24 18:28:00,81.5,69.5,29.82,West,269,6.0,8.0,67,0.00,,,0.00,Wunderground v.1.15,2013-07-24 22:28:00,
2013-07-24 18:34:00,81.4,68.5,29.83,WNW,288,5.0,8.0,65,0.00,,,0.00,Wunderground v.1.15,2013-07-24 22:34:00,
2013-07-24 18:40:00,81.2,68.3,29.82,West,259,5.0,8.0,65,0.00,,,0.00,Wunderground v.1.15,2013-07-24 22:40:00,
2013-07-24 18:46:00,81.0,68.6,29.82,North,354,5.0,8.0,66,0.00,,,0.00,Wunderground v.1.15,2013-07-24 22:46:00,
2013-07-24 18:52:00,81.2,68.8,29.82,WNW,285,4.0,4.0,66,0.00,,,0.00,Wunderground v.1.15,2013-07-24 22:52:00,
2013-07-24 18:58:00,81.4,68.5,29.83,West,264,4.0,5.0,65,0.00,,,0.00,Wunderground v.1.15,2013-07-24 22:58:00,
2013-07-24 19:04:00,80.9,68.0,29.83,WSW,248,4.0,4.0,65,0.00,,,0.00,Wunderground v.1.15,2013-07-24 23:04:00,
2013-07-24 19:10:00,80.4,68.0,29.83,WSW,250,4.0,7.0,66,0.00,,,0.00,Wunderground v.1.15,2013-07-24 23:10:00,
2013-07-24 19:16:00,80.2,67.4,29.83,NW,307,6.0,7.0,65,0.00,,,0.00,Wunderground v.1.15,2013-07-24 23:16:00,
2013-07-24 19:22:00,80.1,67.3,29.83,WNW,282,6.0,6.0,65,0.00,,,0.00,Wunderground v.1.15,2013-07-24 23:22:00,
2013-07-24 19:28:00,80.4,67.6,29.84,West,260,4.0,6.0,65,0.00,,,0.00,Wunderground v.1.15,2013-07-24 23:28:00,
2013-07-24 19:34:00,80.6,67.7,29.84,SW,228,3.0,4.0,65,0.00,,,0.00,Wunderground v.1.15,2013-07-24 23:34:00,
2013-07-24 19:40:00,80.8,67.9,29.84,WSW,246,2.0,4.0,65,0.00,,,0.00,Wunderground v.1.15,2013-07-24 23:40:00,
2013-07-24 19:48:00,81.0,68.1,29.85,WSW,252,1.0,4.0,65,0.00,,,0.00,Wunderground v.1.15,2013-07-24 23:48:00,
2013-07-24 19:54:00,81.1,68.2,29.85,WSW,242,1.0,2.0,65,0.00,,,0.00,Wunderground v.1.15,2013-07-24 23:54:00,
2013-07-24 20:00:00,81.1,67.8,29.85,West,260,1.0,2.0,64,0.00,,,0.00,Wunderground v.1.15,2013-07-25 00:00:00,
2013-07-24 20:06:00,80.9,67.6,29.85,WSW,253,1.0,2.0,64,0.00,,,0.00,Wunderground v.1.15,2013-07-25 00:06:00,
2013-07-24 20:12:00,80.5,67.2,29.85,WSW,238,1.0,2.0,64,0.00,,,0.00,Wunderground v.1.15,2013-07-25 00:12:00,
2013-07-24 20:18:00,79.9,67.1,29.86,SW,214,1.0,2.0,65,0.00,,,0.00,Wunderground v.1.15,2013-07-25 00:18:00,
2013-07-24 20:24:00,79.3,66.5,29.86,SW,218,1.0,2.0,65,0.00,,,0.00,Wunderground v.1.15,2013-07-25 00:24:00,
2013-07-24 20:30:00,78.8,66.5,29.86,SW,224,1.0,1.0,66,0.00,,,0.00,Wunderground v.1.15,2013-07-25 00:30:00,
2013-07-24 20:36:00,78.0,67.0,29.86,SW,228,0.0,2.0,69,0.00,,,0.00,Wunderground v.1.15,2013-07-25 00:36:00,
2013-07-24 20:42:00,77.3,66.7,29.86,SW,227,0.0,2.0,70,0.00,,,0.00,Wunderground v.1.15,2013-07-25 00:42:00,
2013-07-24 20:48:00,76.9,66.4,29.86,West,260,0.0,2.0,70,0.00,,,0.00,Wunderground v.1.15,2013-07-25 00:48:00,
2013-07-24 20:54:00,76.4,67.1,29.86,West,259,0.0,2.0,73,0.00,,,0.00,Wunderground v.1.15,2013-07-25 00:54:00,
2013-07-24 21:00:00,75.9,66.6,29.87,West,260,0.0,2.0,73,0.00,,,0.00,Wunderground v.1.15,2013-07-25 01:00:00,
2013-07-24 21:06:00,75.7,67.6,29.87,West,260,0.0,2.0,76,0.00,,,0.00,Wunderground v.1.15,2013-07-25 01:06:00,
2013-07-24 21:12:00,75.3,68.7,29.87,West,260,0.0,2.0,80,0.00,,,0.00,Wunderground v.1.15,2013-07-25 01:12:00,
2013-07-24 21:18:00,74.9,67.2,29.87,West,260,0.0,2.0,77,0.00,,,0.00,Wunderground v.1.15,2013-07-25 01:18:00,
2013-07-24 21:24:00,74.6,66.5,29.87,WSW,245,0.0,2.0,76,0.00,,,0.00,Wunderground v.1.15,2013-07-25 01:24:00,
2013-07-24 21:30:00,74.7,66.6,29.87,West,264,0.0,2.0,76,0.00,,,0.00,Wunderground v.1.15,2013-07-25 01:30:00,
2013-07-24 21:38:00,74.4,66.7,29.87,West,271,1.0,2.0,77,0.00,,,0.00,Wunderground v.1.15,2013-07-25 01:38:00,
2013-07-24 21:44:00,74.4,66.7,29.87,WNW,288,1.0,2.0,77,0.00,,,0.00,Wunderground v.1.15,2013-07-25 01:44:00,
2013-07-24 21:50:00,74.2,66.5,29.88,West,274,1.0,2.0,77,0.00,,,0.00,Wunderground v.1.15,2013-07-25 01:50:00,
2013-07-24 21:56:00,74.0,66.7,29.88,WSW,248,1.0,3.0,78,0.00,,,0.00,Wunderground v.1.15,2013-07-25 01:56:00,
2013-07-24 22:02:00,73.9,66.6,29.88,SW,226,1.0,2.0,78,0.00,,,0.00,Wunderground v.1.15,2013-07-25 02:02:00,
2013-07-24 22:08:00,73.8,66.9,29.88,WSW,257,2.0,3.0,79,0.00,,,0.00,Wunderground v.1.15,2013-07-25 02:08:00,
2013-07-24 22:14:00,73.7,66.8,29.88,WSW,250,2.0,2.0,79,0.00,,,0.00,Wunderground v.1.15,2013-07-25 02:14:00,
2013-07-24 22:20:00,73.6,66.7,29.88,WSW,255,2.0,2.0,79,0.00,,,0.00,Wunderground v.1.15,2013-07-25 02:20:00,
2013-07-24 22:26:00,73.3,66.8,29.89,WSW,246,2.0,4.0,80,0.00,,,0.00,Wunderground v.1.15,2013-07-25 02:26:00,
2013-07-24 22:32:00,73.1,66.6,29.88,SW,235,2.0,2.0,80,0.00,,,0.00,Wunderground v.1.15,2013-07-25 02:32:00,
2013-07-24 22:38:00,72.8,66.6,29.88,SW,214,1.0,2.0,81,0.00,,,0.00,Wunderground v.1.15,2013-07-25 02:38:00,
2013-07-24 22:44:00,72.6,66.4,29.89,SW,226,0.0,2.0,81,0.00,,,0.00,Wunderground v.1.15,2013-07-25 02:44:00,
2013-07-24 22:50:00,72.4,66.6,29.89,WSW,247,0.0,2.0,82,0.00,,,0.00,Wunderground v.1.15,2013-07-25 02:50:00,
2013-07-24 22:56:00,72.1,66.6,29.89,SW,222,0.0,2.0,83,0.00,,,0.00,Wunderground v.1.15,2013-07-25 02:56:00,
2013-07-24 23:02:00,71.9,66.5,29.89,SW,222,1.0,3.0,83,0.00,,,0.00,Wunderground v.1.15,2013-07-25 03:02:00,
2013-07-24 23:08:00,71.9,66.5,29.89,SW,228,2.0,3.0,83,0.00,,,0.00,Wunderground v.1.15,2013-07-25 03:08:00,
2013-07-24 23:14:00,71.8,66.4,29.89,SSW,211,1.0,2.0,83,0.00,,,0.00,Wunderground v.1.15,2013-07-25 03:14:00,
2013-07-24 23:20:00,71.7,66.6,29.89,SW,229,0.0,2.0,84,0.00,,,0.00,Wunderground v.1.15,2013-07-25 03:20:00,
2013-07-24 23:26:00,71.5,66.8,29.89,SW,231,0.0,2.0,85,0.00,,,0.00,Wunderground v.1.15,2013-07-25 03:26:00,
2013-07-24 23:32:00,71.4,66.7,29.89,SW,231,0.0,2.0,85,0.00,,,0.00,Wunderground v.1.15,2013-07-25 03:32:00,
2013-07-24 23:38:00,71.5,66.8,29.89,SW,231,0.0,2.0,85,0.00,,,0.00,Wunderground v.1.15,2013-07-25 03:38:00,
2013-07-24 23:44:00,71.5,66.8,29.89,SW,218,0.0,2.0,85,0.00,,,0.00,Wunderground v.1.15,2013-07-25 03:44:00,
2013-07-24 23:50:00,71.6,66.5,29.89,SW,217,0.0,2.0,84,0.00,,,0.00,Wunderground v.1.15,2013-07-25 03:50:00,
2013-07-24 23:56:00,71.5,66.8,29.89,SW,226,0.0,2.0,85,0.00,,,0.00,Wunderground v.1.15,2013-07-25 03:56:00,